Time;durP1;ratioP1;P1;durP2;ratioP2;P2;SDS_P1;SDS_P2;PMS_P1;PMS_P2;Temp;Humidity;BMP_temperature;BMP_pressure;BME280_temperature;BME280_humidity;BME280_pressure;Samples;Min_cycle;Max_cycle;Signal;HPM_P1;HPM_P2
2023/07/15 04:22:43;;;;;;;3.30;2.03;;;;;;;17.09;100.00;99547.00;5069251;28;20409;-66
2023/07/15 04:25:11;;;;;;;2.60;2.08;;;;;;;17.12;100.00;99544.91;5069354;28;20478;-66
2023/07/15 04:27:38;;;;;;;2.90;2.10;;;;;;;17.16;100.00;99548.78;5069321;28;20036;-65
2023/07/15 04:30:05;;;;;;;3.63;1.77;;;;;;;17.18;100.00;99552.88;5068906;28;20501;-66
2023/07/15 04:32:30;;;;;;;4.65;3.35;;;;;;;17.23;100.00;99557.56;5069216;28;20044;-67
2023/07/15 04:34:56;;;;;;;4.38;2.80;;;;;;;17.26;100.00;99549.81;5069117;28;20032;-64
2023/07/15 04:37:22;;;;;;;3.13;2.70;;;;;;;17.33;100.00;99563.16;5068939;28;20043;-65
2023/07/15 04:39:48;;;;;;;4.63;3.47;;;;;;;17.34;100.00;99560.25;5068679;28;20397;-65
2023/07/15 04:42:14;;;;;;;2.92;2.45;;;;;;;17.40;100.00;99561.16;5068897;28;20037;-65
2023/07/15 04:44:39;;;;;;;2.20;2.00;;;;;;;17.47;100.00;99567.25;5068865;28;20033;-64
2023/07/15 04:47:05;;;;;;;2.97;1.92;;;;;;;17.53;100.00;99569.00;5068825;28;20045;-64
2023/07/15 04:49:30;;;;;;;3.50;2.10;;;;;;;17.60;100.00;99560.81;5068510;28;20041;-65
2023/07/15 04:51:55;;;;;;;2.58;2.20;;;;;;;17.62;100.00;99567.63;5068758;28;20032;-66
2023/07/15 04:54:21;;;;;;;2.22;1.83;;;;;;;17.71;100.00;99575.31;5068774;28;20032;-63
2023/07/15 04:56:46;;;;;;;2.83;2.20;;;;;;;17.79;100.00;99575.00;5068594;28;20033;-65
2023/07/15 04:59:12;;;;;;;4.78;1.95;;;;;;;17.86;100.00;99573.81;5068528;28;20547;-67
2023/07/15 05:01:38;;;;;;;2.28;1.92;;;;;;;17.95;100.00;99571.59;5068461;28;20043;-66
2023/07/15 05:04:03;;;;;;;2.53;1.70;;;;;;;18.03;100.00;99575.78;5068581;28;20044;-66
2023/07/15 05:06:29;;;;;;;4.95;2.10;;;;;;;18.09;100.00;99581.03;5067167;28;20486;-67
2023/07/15 05:08:55;;;;;;;2.45;1.95;;;;;;;18.18;100.00;99593.06;5068134;28;20064;-66
2023/07/15 05:11:21;;;;;;;2.47;1.85;;;;;;;18.28;100.00;99588.97;5068443;28;20087;-66
2023/07/15 05:13:47;;;;;;;1.80;1.70;;;;;;;18.40;98.30;99581.66;5068335;28;20432;-65
2023/07/15 05:16:14;;;;;;;2.58;2.00;;;;;;;18.51;98.32;99575.38;5068259;28;20033;-66
2023/07/15 05:18:40;;;;;;;2.45;1.55;;;;;;;18.59;99.49;99577.69;5068021;28;20040;-66
2023/07/15 05:21:06;;;;;;;3.58;2.20;;;;;;;18.67;99.80;99568.44;5067985;28;20039;-67
2023/07/15 05:23:32;;;;;;;3.80;1.85;;;;;;;18.78;99.40;99574.81;5068126;28;20050;-67
2023/07/15 05:26:01;;;;;;;1.50;1.40;;;;;;;18.89;100.00;99576.63;5067984;28;20041;-66
2023/07/15 05:28:30;;;;;;;2.10;1.70;;;;;;;18.98;98.89;99565.19;5067722;28;20575;-67
2023/07/15 05:31:00;;;;;;;3.65;1.80;;;;;;;19.08;97.77;99561.03;5067972;28;20033;-64
2023/07/15 05:33:25;;;;;;;2.20;1.45;;;;;;;19.17;96.76;99565.78;5058267;28;20080;-51
2023/07/15 05:35:51;;;;;;;2.20;1.70;;;;;;;19.25;97.16;99562.66;5054606;28;20076;-53
2023/07/15 05:38:16;;;;;;;2.28;1.75;;;;;;;19.34;96.08;99560.34;5054358;28;20029;-56
2023/07/15 05:40:42;;;;;;;1.55;1.45;;;;;;;19.51;95.75;99563.84;5054453;28;20037;-51
2023/07/15 05:43:10;;;;;;;2.30;1.70;;;;;;;19.62;93.46;99553.22;5054523;28;20052;-50
2023/07/15 05:45:36;;;;;;;2.20;1.80;;;;;;;19.78;93.27;99560.47;5054410;28;20502;-50
2023/07/15 05:48:01;;;;;;;2.35;1.60;;;;;;;19.90;89.17;99560.38;5054368;28;20080;-51
2023/07/15 05:50:29;;;;;;;2.38;1.90;;;;;;;20.01;87.83;99548.59;5054080;28;20124;-50
2023/07/15 05:52:55;;;;;;;2.17;1.70;;;;;;;20.13;84.99;99549.28;5054415;28;20041;-54
2023/07/15 05:55:20;;;;;;;2.80;1.70;;;;;;;20.17;82.56;99550.44;5054227;28;20086;-50
2023/07/15 05:57:46;;;;;;;2.78;1.92;;;;;;;20.24;82.22;99548.34;5054380;28;20053;-50
2023/07/15 06:00:11;;;;;;;3.40;1.70;;;;;;;20.35;81.92;99551.97;5053966;28;20041;-53
2023/07/15 06:02:41;;;;;;;1.85;1.58;;;;;;;20.51;79.56;99552.97;5054135;28;20037;-54
2023/07/15 06:05:07;;;;;;;2.67;1.50;;;;;;;20.63;78.33;99542.00;5054023;28;20131;-53
2023/07/15 06:07:32;;;;;;;3.25;1.70;;;;;;;20.78;78.41;99539.44;5054259;28;20493;-50
2023/07/15 06:09:57;;;;;;;2.40;1.55;;;;;;;20.88;78.91;99533.31;5053795;28;20095;-54
2023/07/15 06:12:24;;;;;;;2.10;1.70;;;;;;;20.97;77.24;99526.34;5052762;28;20481;-50
2023/07/15 06:14:49;;;;;;;2.40;1.50;;;;;;;21.17;76.65;99529.19;5054101;28;20041;-51
2023/07/15 06:17:15;;;;;;;2.10;1.50;;;;;;;21.33;76.26;99524.75;5053927;28;20048;-52
2023/07/15 06:19:40;;;;;;;1.95;1.67;;;;;;;21.47;74.31;99530.53;5053601;28;20405;-51
2023/07/15 06:22:06;;;;;;;2.45;1.60;;;;;;;21.46;74.25;99527.00;5053672;28;20102;-54
2023/07/15 06:24:31;;;;;;;1.95;1.40;;;;;;;21.52;75.12;99517.00;5053798;28;20134;-51
2023/07/15 06:26:57;;;;;;;1.98;1.58;;;;;;;21.70;72.61;99527.38;5053740;28;20029;-51
2023/07/15 06:29:24;;;;;;;2.55;1.60;;;;;;;21.75;71.65;99510.34;5053443;28;20044;-53
2023/07/15 06:31:50;;;;;;;2.15;1.80;;;;;;;21.84;71.15;99506.03;5053567;28;20065;-49
2023/07/15 06:34:16;;;;;;;1.67;1.50;;;;;;;21.94;69.66;99506.91;5053639;28;20436;-54
2023/07/15 06:36:42;;;;;;;1.80;1.60;;;;;;;22.04;69.60;99506.13;5053489;28;20037;-51
2023/07/15 06:39:07;;;;;;;2.35;1.40;;;;;;;22.19;68.28;99505.38;5053252;28;20040;-50
2023/07/15 06:41:32;;;;;;;2.05;1.42;;;;;;;22.31;67.72;99503.25;5053449;28;20437;-53
2023/07/15 06:43:58;;;;;;;2.60;1.65;;;;;;;22.46;67.33;99499.75;5052726;28;20044;-54
2023/07/15 06:46:25;;;;;;;1.92;1.40;;;;;;;22.73;65.64;99504.91;5053045;28;20064;-51
2023/07/15 06:48:51;;;;;;;2.15;1.80;;;;;;;22.83;65.79;99502.22;5053014;28;20553;-53
2023/07/15 06:51:18;;;;;;;2.75;1.73;;;;;;;22.95;67.82;99507.38;5053219;28;20120;-54
2023/07/15 06:53:43;;;;;;;2.55;1.65;;;;;;;23.14;62.28;99513.06;5053111;28;20045;-51
2023/07/15 06:56:09;;;;;;;3.55;1.55;;;;;;;23.42;60.57;99517.13;5053146;28;20095;-55
2023/07/15 06:58:34;;;;;;;2.15;1.63;;;;;;;23.58;61.86;99520.59;5052987;28;20033;-55
2023/07/15 07:00:59;;;;;;;1.58;1.20;;;;;;;23.74;61.03;99527.66;5053188;28;20433;-51
2023/07/15 07:03:25;;;;;;;1.73;1.55;;;;;;;23.89;58.32;99521.34;5053072;28;20045;-54
2023/07/15 07:05:50;;;;;;;2.40;1.60;;;;;;;23.99;58.19;99532.16;5053061;28;20367;-51
2023/07/15 07:08:16;;;;;;;1.60;1.30;;;;;;;24.02;57.60;99537.88;5052609;28;20040;-57
2023/07/15 07:10:41;;;;;;;1.55;1.35;;;;;;;24.04;58.04;99534.88;5052938;28;20029;-54
2023/07/15 07:13:06;;;;;;;3.63;1.50;;;;;;;24.00;60.71;99542.78;5052936;28;20049;-61
2023/07/15 07:15:32;;;;;;;2.38;1.60;;;;;;;23.94;61.57;99534.94;5052872;28;20036;-59
2023/07/15 07:17:57;;;;;;;1.73;1.58;;;;;;;23.96;58.99;99533.56;5052559;28;20508;-61
2023/07/15 07:20:23;;;;;;;2.28;1.88;;;;;;;24.00;58.51;99531.09;5052343;28;20040;-59
2023/07/15 07:22:48;;;;;;;1.70;1.40;;;;;;;23.99;62.04;99543.03;5051645;28;20103;-58
2023/07/15 07:25:13;;;;;;;1.98;1.60;;;;;;;24.01;63.33;99543.59;5052689;28;20486;-59
2023/07/15 07:27:39;;;;;;;2.65;1.83;;;;;;;24.07;60.60;99553.38;5052975;28;20036;-59
2023/07/15 07:30:05;;;;;;;1.85;1.45;;;;;;;24.09;63.25;99546.56;5052799;28;20080;-55
2023/07/15 07:32:30;;;;;;;2.72;1.50;;;;;;;24.15;62.33;99541.09;5052647;28;20501;-61
2023/07/15 07:34:58;;;;;;;2.38;1.90;;;;;;;24.12;63.88;99526.13;5052594;28;20044;-61
2023/07/15 07:37:23;;;;;;;2.05;1.67;;;;;;;24.22;60.47;99514.38;5052419;28;20040;-62
2023/07/15 07:39:49;;;;;;;2.25;1.70;;;;;;;24.23;59.97;99516.00;5052107;28;20041;-62
2023/07/15 07:42:14;;;;;;;1.95;1.48;;;;;;;24.24;62.22;99523.88;5052141;28;20125;-63
2023/07/15 07:44:40;;;;;;;2.38;1.95;;;;;;;24.29;60.50;99532.03;5052283;28;20131;-63
2023/07/15 07:47:05;;;;;;;4.45;2.42;;;;;;;24.43;59.55;99542.31;5051855;28;20037;-62
2023/07/15 07:49:31;;;;;;;3.38;2.05;;;;;;;24.48;61.14;99543.09;5051977;28;20045;-62
2023/07/15 07:51:56;;;;;;;3.67;2.78;;;;;;;24.60;62.65;99550.94;5052141;28;20485;-63
2023/07/15 07:54:21;;;;;;;3.42;2.80;;;;;;;24.67;64.71;99556.06;5051329;28;20045;-62
2023/07/15 07:56:47;;;;;;;2.75;1.67;;;;;;;24.71;66.42;99560.63;5051113;28;20033;-60
2023/07/15 07:59:12;;;;;;;2.95;1.75;;;;;;;24.84;62.95;99559.19;5051728;28;20047;-63
2023/07/15 08:01:38;;;;;;;2.80;2.10;;;;;;;25.00;59.16;99551.72;5051864;28;20037;-62
2023/07/15 08:04:03;;;;;;;2.33;2.03;;;;;;;25.26;62.26;99550.44;5051957;28;20037;-61
2023/07/15 08:06:29;;;;;;;3.60;2.35;;;;;;;25.33;60.75;99555.56;5051734;28;20033;-62
2023/07/15 08:08:54;;;;;;;3.00;2.08;;;;;;;25.59;56.55;99565.09;5051658;28;20041;-61
2023/07/15 08:11:20;;;;;;;4.80;2.15;;;;;;;25.64;59.72;99567.78;5050762;28;20037;-61
2023/07/15 08:13:45;;;;;;;2.00;1.70;;;;;;;25.66;59.94;99556.56;5051851;28;20111;-61
2023/07/15 08:16:33;;;;;;;3.33;1.95;;;;;;;25.69;61.52;99567.72;5051696;28;20045;-61
2023/07/15 08:18:58;;;;;;;4.07;2.25;;;;;;;25.67;62.18;99561.75;5051382;28;20103;-63
2023/07/15 08:21:26;;;;;;;2.83;2.13;;;;;;;25.70;61.29;99561.16;5051521;28;20064;-63
2023/07/15 08:23:52;;;;;;;3.33;2.45;;;;;;;25.76;56.74;99564.69;5051734;28;20040;-62
2023/07/15 08:26:17;;;;;;;3.00;2.17;;;;;;;25.96;55.04;99574.56;5051561;28;20090;-61
2023/07/15 08:28:42;;;;;;;2.47;2.05;;;;;;;26.11;59.58;99577.09;5051385;28;20412;-63
2023/07/15 08:31:08;;;;;;;3.92;2.80;;;;;;;26.33;60.08;99576.53;5051654;28;20035;-64
2023/07/15 08:33:33;;;;;;;2.58;1.88;;;;;;;26.67;52.25;99570.91;5050400;28;20045;-62
2023/07/15 08:35:59;;;;;;;4.00;2.30;;;;;;;26.80;52.40;99574.81;5051562;28;20060;-62
2023/07/15 08:38:24;;;;;;;3.28;2.00;;;;;;;27.06;50.99;99575.25;5051521;28;20079;-62
2023/07/15 08:40:51;;;;;;;2.75;2.05;;;;;;;27.21;49.47;99575.00;5051455;28;20095;-62
2023/07/15 08:43:17;;;;;;;3.20;2.20;;;;;;;27.20;53.32;99572.56;5051587;28;20044;-61
2023/07/15 08:45:43;;;;;;;3.30;2.03;;;;;;;27.15;52.23;99570.72;5051463;28;20029;-62
2023/07/15 08:48:09;;;;;;;2.88;2.08;;;;;;;27.27;49.54;99564.78;5051395;28;20391;-62
2023/07/15 08:50:34;;;;;;;2.75;2.40;;;;;;;27.30;54.80;99567.72;5051196;28;20461;-63
2023/07/15 08:53:01;;;;;;;3.70;2.30;;;;;;;27.35;54.28;99571.47;5051467;28;20055;-62
2023/07/15 08:55:29;;;;;;;3.03;2.30;;;;;;;27.40;53.68;99572.22;5051297;28;20137;-61
2023/07/15 08:57:57;;;;;;;4.10;2.63;;;;;;;27.51;54.55;99572.81;5051347;28;20049;-62
2023/07/15 09:00:23;;;;;;;3.22;2.40;;;;;;;27.54;56.10;99570.31;5050981;28;20037;-63
2023/07/15 09:02:51;;;;;;;3.20;2.58;;;;;;;27.60;55.37;99571.03;5051202;28;20032;-63
2023/07/15 09:05:16;;;;;;;3.03;2.45;;;;;;;27.76;53.32;99566.09;5051165;28;20036;-63
2023/07/15 09:07:50;;;;;;;4.50;2.65;;;;;;;27.97;56.53;99564.56;5050843;28;20044;-63
2023/07/15 09:10:15;;;;;;;3.10;2.45;;;;;;;28.02;53.86;99559.00;5054712;28;20555;-63
2023/07/15 09:12:52;;;;;;;5.00;3.90;;;;;;;28.13;51.95;99570.56;5054946;28;20044;-63
2023/07/15 09:15:18;;;;;;;4.07;3.20;;;;;;;28.09;53.31;99567.59;5054827;28;20383;-62
2023/07/15 09:17:51;;;;;;;3.03;2.53;;;;;;;27.98;52.32;99579.91;5054820;28;20063;-61
2023/07/15 09:20:18;;;;;;;4.78;3.20;;;;;;;27.88;50.94;99580.09;5054630;28;20036;-62
2023/07/15 09:22:55;;;;;;;5.00;3.10;;;;;;;27.71;53.93;99590.81;5054721;28;20040;-62
2023/07/15 09:25:22;;;;;;;2.72;2.50;;;;;;;27.61;55.63;99600.00;5054712;28;20087;-62
2023/07/15 09:27:48;;;;;;;3.03;2.40;;;;;;;27.48;56.60;99590.66;5054689;28;20033;-62
2023/07/15 09:30:14;;;;;;;5.35;3.08;;;;;;;27.43;56.69;99585.25;5054370;28;20061;-62
2023/07/15 09:32:39;;;;;;;4.07;2.65;;;;;;;27.34;55.19;99581.63;5054654;28;20079;-63
2023/07/15 09:35:06;;;;;;;4.22;3.10;;;;;;;27.29;55.41;99585.25;5054619;28;20044;-62
2023/07/15 09:37:32;;;;;;;3.90;2.93;;;;;;;27.41;52.11;99598.44;5054680;28;20041;-61
2023/07/15 09:40:07;;;;;;;4.95;3.20;;;;;;;27.72;52.67;99626.09;5053385;28;20379;-62
2023/07/15 09:42:52;;;;;;;5.22;3.20;;;;;;;27.91;51.90;99644.34;5054492;28;20447;-62
2023/07/15 09:45:37;;;;;;;4.70;2.83;;;;;;;28.12;49.37;99645.59;5054412;28;20040;-62
2023/07/15 09:48:05;;;;;;;4.25;3.30;;;;;;;28.29;50.92;99667.66;5054384;28;20043;-62
2023/07/15 09:50:36;;;;;;;3.60;2.78;;;;;;;28.49;49.96;99660.19;5053706;28;20037;-61
2023/07/15 09:53:02;;;;;;;6.00;3.13;;;;;;;28.76;50.80;99670.31;5047386;28;20525;-63
2023/07/15 09:55:30;;;;;;;5.70;4.32;;;;;;;28.97;50.75;99662.47;5054281;28;20033;-63
2023/07/15 09:58:23;;;;;;;4.35;3.20;;;;;;;28.99;48.98;99662.97;5054397;28;20513;-61
2023/07/15 10:00:52;;;;;;;4.90;3.30;;;;;;;29.58;47.20;99652.78;5054180;28;20119;-62
2023/07/15 10:03:27;;;;;;;5.05;3.35;;;;;;;29.84;49.32;99648.25;5054139;28;20128;-64
2023/07/15 10:05:53;;;;;;;6.53;3.95;;;;;;;30.31;45.33;99642.31;5052978;28;20482;-63
2023/07/15 10:08:19;;;;;;;7.28;3.45;;;;;;;30.48;43.87;99637.69;5053932;28;20040;-64
2023/07/15 10:10:45;;;;;;;3.72;3.10;;;;;;;30.72;43.74;99641.97;5054007;28;20049;-64
2023/07/15 10:13:12;;;;;;;7.60;3.35;;;;;;;31.22;43.65;99646.97;5054076;28;20163;-63
2023/07/15 10:15:38;;;;;;;3.97;3.00;;;;;;;31.42;43.44;99638.06;5053798;28;20032;-63
2023/07/15 10:18:12;;;;;;;4.55;3.38;;;;;;;31.11;42.96;99642.94;5053991;28;20032;-63
2023/07/15 10:20:41;;;;;;;3.50;2.83;;;;;;;31.06;41.24;99638.41;5053402;28;20025;-63
2023/07/15 10:23:09;;;;;;;4.35;2.70;;;;;;;30.98;41.90;99637.28;5054014;28;20045;-63
2023/07/15 10:25:34;;;;;;;5.88;3.47;;;;;;;30.90;43.20;99640.81;5053729;28;20044;-63
2023/07/15 10:28:12;;;;;;;4.70;3.05;;;;;;;30.91;43.67;99634.22;5053755;28;20037;-63
2023/07/15 10:30:37;;;;;;;4.50;3.30;;;;;;;30.76;43.48;99631.91;5053384;28;20454;-64
2023/07/15 10:33:08;;;;;;;4.50;3.45;;;;;;;30.51;42.53;99642.50;5053628;28;20114;-65
2023/07/15 10:35:39;;;;;;;5.43;3.40;;;;;;;30.38;43.83;99637.97;5053710;28;20033;-64
2023/07/15 10:38:27;;;;;;;6.55;3.40;;;;;;;30.38;43.49;99629.72;5053629;28;20047;-65
2023/07/15 10:41:02;;;;;;;5.65;3.63;;;;;;;30.19;43.17;99629.19;5053439;28;20037;-65
2023/07/15 10:43:33;;;;;;;6.57;2.63;;;;;;;30.09;44.32;99629.47;5053475;28;20134;-58
2023/07/15 10:46:02;;;;;;;5.57;3.15;;;;;;;29.96;45.82;99609.22;5053406;28;20040;-63
2023/07/15 10:48:27;;;;;;;5.60;3.05;;;;;;;29.93;44.83;99607.09;5052983;28;20052;-63
2023/07/15 10:50:54;;;;;;;6.25;4.13;;;;;;;29.78;43.39;99608.34;5053318;28;20037;-62
2023/07/15 10:53:27;;;;;;;3.90;3.13;;;;;;;29.75;43.84;99608.97;5053160;28;20486;-64
2023/07/15 10:56:01;;;;;;;7.78;3.60;;;;;;;29.69;44.00;99615.72;5053242;28;20041;-62
2023/07/15 10:58:28;;;;;;;6.55;3.63;;;;;;;29.66;43.14;99599.88;5052905;28;20059;-62
2023/07/15 11:01:00;;;;;;;;;;;;;;;29.62;43.78;99599.72;5053498;28;20037;-64
2023/07/15 11:03:27;;;;;;;7.35;3.83;;;;;;;29.67;43.22;99582.31;5053119;28;19925;-61
2023/07/15 11:06:01;;;;;;;4.80;3.40;;;;;;;29.78;43.13;99572.66;5052995;28;20036;-61
2023/07/15 11:08:27;;;;;;;8.73;3.78;;;;;;;29.90;44.05;99567.38;5052757;28;20039;-63
2023/07/15 11:11:04;;;;;;;6.05;3.40;;;;;;;29.94;44.72;99560.13;5053016;28;20044;-63
2023/07/15 11:13:30;;;;;;;4.43;3.08;;;;;;;30.07;43.82;99557.59;5052738;28;20045;-63
2023/07/15 11:15:56;;;;;;;7.45;3.55;;;;;;;30.04;42.35;99564.50;5052554;28;20032;-63
2023/07/15 11:18:26;;;;;;;5.37;3.30;;;;;;;30.10;43.19;99566.00;5052735;28;20454;-64
2023/07/15 11:20:59;;;;;;;7.40;4.40;;;;;;;30.11;43.36;99569.56;5052745;28;20041;-63
2023/07/15 11:23:27;;;;;;;4.97;3.50;;;;;;;30.00;43.80;99560.81;5052763;28;20053;-63
2023/07/15 11:25:53;;;;;;;8.70;3.33;;;;;;;30.03;43.81;99554.66;5052770;28;20037;-63
2023/07/15 11:28:18;;;;;;;7.65;3.75;;;;;;;30.02;46.05;99547.56;5052338;28;20037;-63
2023/07/15 11:30:46;;;;;;;10.30;5.15;;;;;;;30.27;44.61;99546.84;5050858;28;20537;-63
2023/07/15 11:33:12;;;;;;;8.65;4.53;;;;;;;30.42;44.69;99542.81;5052555;28;20063;-63
2023/07/15 11:35:41;;;;;;;7.80;3.83;;;;;;;30.78;45.26;99533.47;5052708;28;20036;-63
2023/07/15 11:38:14;;;;;;;7.88;3.67;;;;;;;31.49;41.17;99539.31;5052445;28;20041;-63
2023/07/15 11:40:56;;;;;;;5.45;3.60;;;;;;;32.29;40.90;99528.41;5052243;28;20032;-63
2023/07/15 11:43:24;;;;;;;6.85;4.03;;;;;;;32.52;40.79;99531.63;5052325;28;20048;-63
2023/07/15 11:45:53;;;;;;;5.28;3.63;;;;;;;32.60;40.46;99518.94;5052316;28;20039;-63
2023/07/15 11:48:22;;;;;;;7.03;4.68;;;;;;;32.40;40.36;99513.09;5051973;28;20535;-63
2023/07/15 11:50:48;;;;;;;6.97;4.95;;;;;;;32.22;40.16;99513.53;5052280;28;20041;-63
2023/07/15 11:53:23;;;;;;;7.80;4.27;;;;;;;32.00;40.37;99503.63;5052285;28;20040;-61
2023/07/15 11:55:49;;;;;;;7.05;3.90;;;;;;;31.84;40.01;99506.97;5052106;28;20045;-63
2023/07/15 11:58:41;;;;;;;5.47;3.87;;;;;;;31.54;41.41;99499.81;5051999;28;20075;-62
2023/07/15 12:01:10;;;;;;;6.75;4.07;;;;;;;31.44;42.90;99494.69;5052054;28;20512;-61
2023/07/15 12:03:35;;;;;;;5.82;4.20;;;;;;;31.43;42.53;99490.28;5052045;28;20113;-63
2023/07/15 12:06:01;;;;;;;7.03;4.20;;;;;;;31.26;41.66;99480.19;5051881;28;20064;-64
2023/07/15 12:08:26;;;;;;;5.63;4.57;;;;;;;31.46;42.97;99479.44;5051695;28;20041;-63
2023/07/15 12:10:56;;;;;;;6.77;4.60;;;;;;;31.61;43.68;99481.63;5051987;28;20542;-63
2023/07/15 12:13:21;;;;;;;8.18;4.32;;;;;;;31.58;41.74;99479.56;5051983;28;20044;-66
2023/07/15 12:15:47;;;;;;;6.27;4.27;;;;;;;31.42;41.03;99478.47;5051969;28;20033;-58
2023/07/15 12:18:12;;;;;;;7.97;4.27;;;;;;;31.30;42.34;99472.91;5051994;28;20044;-63
2023/07/15 12:20:38;;;;;;;8.63;4.00;;;;;;;31.09;42.17;99461.75;5051485;28;20040;-63
2023/07/15 12:23:03;;;;;;;6.13;4.40;;;;;;;31.24;43.41;99468.72;5051947;28;20532;-62
2023/07/15 12:25:29;;;;;;;6.27;4.10;;;;;;;31.17;42.85;99477.44;5051828;28;20513;-62
2023/07/15 12:27:54;;;;;;;8.30;4.17;;;;;;;30.95;43.44;99472.94;5051855;28;20037;-62
2023/07/15 12:30:19;;;;;;;8.03;4.70;;;;;;;30.89;43.73;99482.50;5051588;28;20044;-63
2023/07/15 12:32:45;;;;;;;8.57;4.50;;;;;;;30.77;43.74;99482.34;5051750;28;20037;-62
2023/07/15 12:35:10;;;;;;;8.97;4.80;;;;;;;30.67;44.01;99479.94;5051073;28;20044;-62
2023/07/15 12:37:38;;;;;;;7.87;4.73;;;;;;;30.73;44.81;99475.91;5051703;28;20469;-62
2023/07/15 12:40:08;;;;;;;7.32;4.93;;;;;;;30.63;43.81;99473.47;5051474;28;20444;-62
2023/07/15 12:42:35;;;;;;;7.03;4.50;;;;;;;30.75;44.67;99470.91;5052256;28;20479;-63
2023/07/15 12:45:01;;;;;;;7.80;5.00;;;;;;;30.94;43.67;99448.53;5055767;28;20075;-60
2023/07/15 12:47:27;;;;;;;8.65;4.82;;;;;;;31.65;42.19;99468.03;5055770;28;20112;-63
2023/07/15 12:49:52;;;;;;;8.18;4.97;;;;;;;31.81;41.46;99460.00;5055379;28;20068;-62
2023/07/15 12:52:17;;;;;;;6.60;4.43;;;;;;;32.00;40.94;99459.56;5054431;28;20033;-62
2023/07/15 12:54:43;;;;;;;5.90;4.77;;;;;;;32.14;40.98;99476.63;5055730;28;20044;-63
2023/07/15 12:57:08;;;;;;;8.97;4.53;;;;;;;32.16;42.28;99481.84;5055475;28;20410;-63
2023/07/15 12:59:34;;;;;;;10.10;5.87;;;;;;;32.23;41.76;99471.88;5055180;28;20040;-63
2023/07/15 13:01:59;;;;;;;7.90;5.47;;;;;;;32.53;42.76;99469.84;5055307;28;20048;-63
2023/07/15 13:04:25;;;;;;;7.33;4.30;;;;;;;32.70;40.11;99454.31;5055294;28;20097;-62
2023/07/15 13:06:50;;;;;;;8.20;4.57;;;;;;;32.96;38.49;99449.34;5055334;28;20410;-63
2023/07/15 13:09:16;;;;;;;8.50;4.57;;;;;;;32.91;38.89;99455.09;5055284;28;20136;-63
2023/07/15 13:11:41;;;;;;;7.50;4.57;;;;;;;33.52;38.96;99452.44;5055137;28;20104;-63
2023/07/15 13:14:07;;;;;;;8.87;4.80;;;;;;;34.04;37.54;99451.72;5055285;28;20075;-63
2023/07/15 13:16:32;;;;;;;6.90;4.40;;;;;;;34.77;37.45;99458.94;5055062;28;20037;-63
2023/07/15 13:18:58;;;;;;;9.17;4.77;;;;;;;34.85;35.80;99451.66;5054829;28;20036;-63
2023/07/15 13:21:23;;;;;;;8.40;4.60;;;;;;;34.83;36.24;99446.47;5054995;28;20033;-62
2023/07/15 13:23:49;;;;;;;7.83;4.53;;;;;;;34.80;36.12;99444.41;5053690;28;20414;-62
2023/07/15 13:26:14;;;;;;;6.03;4.00;;;;;;;34.84;36.42;99437.00;5054841;28;20084;-63
2023/07/15 13:28:40;;;;;;;6.97;4.90;;;;;;;34.57;36.03;99449.72;5054696;28;20040;-62
2023/07/15 13:31:05;;;;;;;7.63;4.70;;;;;;;34.47;35.89;99452.97;5054883;28;20106;-62
2023/07/15 13:33:30;;;;;;;5.80;4.27;;;;;;;33.89;36.00;99444.09;5054808;28;20053;-62
2023/07/15 13:35:56;;;;;;;11.73;4.93;;;;;;;33.64;38.28;99454.38;5054728;28;20105;-63
2023/07/15 13:38:21;;;;;;;9.00;4.07;;;;;;;33.48;37.81;99448.75;5054765;28;20033;-62
2023/07/15 13:40:46;;;;;;;7.03;4.60;;;;;;;33.42;36.86;99450.94;5053527;28;20064;-62
2023/07/15 13:43:12;;;;;;;8.53;4.73;;;;;;;33.31;38.22;99454.47;5054773;28;20044;-62
2023/07/15 13:45:37;;;;;;;11.13;6.33;;;;;;;33.14;38.59;99461.00;5054619;28;20048;-64
2023/07/15 13:48:03;;;;;;;9.67;4.93;;;;;;;33.03;38.25;99473.63;5054554;28;20167;-61
2023/07/15 13:50:28;;;;;;;9.97;5.63;;;;;;;32.71;39.22;99478.78;5054234;28;20183;-62
2023/07/15 13:52:54;;;;;;;13.40;5.80;;;;;;;32.53;39.74;99486.41;5054504;28;20037;-61
2023/07/15 13:55:19;;;;;;;11.77;4.73;;;;;;;32.31;39.65;99487.53;5053820;28;20037;-61
2023/07/15 13:57:45;;;;;;;11.13;5.80;;;;;;;32.05;39.92;99493.22;5054377;28;20037;-62
2023/07/15 14:00:11;;;;;;;8.17;5.40;;;;;;;31.96;40.72;99494.44;5054101;28;20033;-62
2023/07/15 14:02:39;;;;;;;11.00;5.32;;;;;;;31.80;40.10;99494.19;5054294;28;20563;-61
2023/07/15 14:05:05;;;;;;;9.07;4.57;;;;;;;31.71;40.16;99502.47;5054172;28;20041;-61
2023/07/15 14:07:30;;;;;;;10.73;5.13;;;;;;;31.65;39.96;99492.00;5054198;28;20059;-62
2023/07/15 14:09:56;;;;;;;11.23;5.33;;;;;;;31.66;39.59;99488.09;5053845;28;20041;-60
2023/07/15 14:12:21;;;;;;;9.37;4.67;;;;;;;31.62;40.56;99493.44;5054168;28;20405;-62
2023/07/15 14:14:46;;;;;;;8.07;5.07;;;;;;;31.51;41.35;99492.22;5054036;28;20045;-62
2023/07/15 14:17:12;;;;;;;7.20;4.90;;;;;;;31.47;42.25;99491.25;5053912;28;20127;-62
2023/07/15 14:19:37;;;;;;;7.93;5.20;;;;;;;31.39;41.41;99495.66;5054025;28;20067;-62
2023/07/15 14:22:03;;;;;;;12.80;5.10;;;;;;;31.28;41.57;99506.22;5053772;28;20036;-62
2023/07/15 14:24:28;;;;;;;8.50;4.90;;;;;;;31.23;42.18;99502.78;5053944;28;20043;-62
2023/07/15 14:26:54;;;;;;;11.27;4.60;;;;;;;31.10;41.85;99506.56;5053733;28;20143;-64
2023/07/15 14:29:19;;;;;;;9.55;5.22;;;;;;;30.97;43.32;99497.34;5053584;28;20112;-61
2023/07/15 14:31:45;;;;;;;7.75;4.88;;;;;;;30.96;42.66;99507.56;5053819;28;20036;-60
2023/07/15 14:34:10;;;;;;;10.90;6.17;;;;;;;30.90;43.42;99519.03;5052399;28;20076;-61
2023/07/15 14:36:36;;;;;;;10.27;6.43;;;;;;;30.71;43.96;99520.22;5053572;28;20032;-61
2023/07/15 14:39:03;;;;;;;9.33;5.73;;;;;;;30.58;44.23;99531.31;5053392;28;20033;-62
2023/07/15 14:41:29;;;;;;;11.15;5.93;;;;;;;30.48;45.15;99538.78;5053587;28;20497;-60
2023/07/15 14:43:54;;;;;;;10.30;5.50;;;;;;;30.31;47.06;99538.75;5053878;28;20049;-61
2023/07/15 14:46:19;;;;;;;10.55;5.80;;;;;;;30.11;48.40;99528.38;5053611;28;20122;-61
2023/07/15 14:48:45;;;;;;;10.73;5.07;;;;;;;29.93;49.31;99527.50;5052285;28;20040;-62
2023/07/15 14:51:10;;;;;;;9.07;5.55;;;;;;;29.74;49.85;99530.53;5053524;28;20033;-62
2023/07/15 14:53:36;;;;;;;10.75;5.07;;;;;;;29.46;51.36;99536.16;5053458;28;20029;-62
2023/07/15 14:56:02;;;;;;;11.18;5.50;;;;;;;29.62;50.37;99533.06;5053298;28;20566;-62
2023/07/15 14:58:27;;;;;;;8.40;5.23;;;;;;;29.24;51.68;99511.53;5053058;28;20299;-61
2023/07/15 15:00:53;;;;;;;8.05;4.65;;;;;;;29.15;52.88;99511.50;5053218;28;20043;-62
2023/07/15 15:03:18;;;;;;;13.35;6.20;;;;;;;29.06;54.48;99526.28;5051767;28;20131;-61
2023/07/15 15:05:44;;;;;;;9.68;5.70;;;;;;;29.21;54.95;99517.66;5052273;28;20048;-62
2023/07/15 15:08:10;;;;;;;10.98;5.60;;;;;;;29.32;55.14;99527.22;5052991;28;20047;-60
2023/07/15 15:10:38;;;;;;;9.38;4.88;;;;;;;29.37;56.20;99532.59;5052773;28;20033;-60
2023/07/15 15:13:03;;;;;;;11.80;6.22;;;;;;;29.42;56.41;99532.47;5053305;28;20029;-62
2023/07/15 15:15:29;;;;;;;12.05;6.63;;;;;;;29.49;54.94;99522.97;5052821;28;20098;-61
2023/07/15 15:17:55;;;;;;;9.98;5.15;;;;;;;29.59;53.84;99530.94;5052660;28;20041;-60
2023/07/15 15:20:20;;;;;;;7.07;4.43;;;;;;;29.48;53.75;99527.66;5052413;28;20125;-60
2023/07/15 15:22:45;;;;;;;8.10;4.88;;;;;;;29.40;54.68;99526.47;5052619;28;20037;-60
2023/07/15 15:25:11;;;;;;;9.23;4.85;;;;;;;29.52;54.81;99528.66;5052914;28;20037;-62
2023/07/15 15:27:36;;;;;;;10.73;5.15;;;;;;;29.55;53.48;99516.25;5052734;28;20111;-61
2023/07/15 15:30:02;;;;;;;10.90;5.68;;;;;;;29.45;54.49;99520.03;5052344;28;20036;-61
2023/07/15 15:32:27;;;;;;;9.43;4.95;;;;;;;29.39;55.40;99524.03;5052593;28;20032;-62
2023/07/15 15:34:53;;;;;;;10.73;5.53;;;;;;;29.39;55.20;99535.00;5052554;28;20375;-61
2023/07/15 15:37:18;;;;;;;12.00;6.25;;;;;;;29.42;56.00;99526.97;5052256;28;20110;-63
2023/07/15 15:39:44;;;;;;;11.68;5.47;;;;;;;29.37;55.77;99524.34;5052231;28;20044;-62
2023/07/15 15:42:09;;;;;;;8.13;5.07;;;;;;;29.38;54.72;99527.91;5052255;28;20482;-63
2023/07/15 15:44:34;;;;;;;8.77;4.85;;;;;;;29.30;55.45;99528.69;5052347;28;20391;-62
2023/07/15 15:47:00;;;;;;;9.52;5.18;;;;;;;29.23;56.73;99537.34;5052357;28;20044;-59
2023/07/15 15:49:25;;;;;;;16.75;5.30;;;;;;;29.26;56.58;99535.91;5052029;28;20127;-61
2023/07/15 15:51:50;;;;;;;8.68;5.18;;;;;;;29.14;56.40;99537.28;5051785;28;20075;-60